sensor_id;sensor_type;location;lat;lon;timestamp;temperature;humidity
17887;DHT22;9069;52.044;7.472;2023-05-17T00:01:41;13.60;77.80
17887;DHT22;9069;52.044;7.472;2023-05-17T00:04:08;13.60;78.10
17887;DHT22;9069;52.044;7.472;2023-05-17T00:06:35;13.60;78.30
17887;DHT22;9069;52.044;7.472;2023-05-17T00:09:02;13.60;78.40
17887;DHT22;9069;52.044;7.472;2023-05-17T00:11:29;13.50;78.70
17887;DHT22;9069;52.044;7.472;2023-05-17T00:13:56;13.50;78.80
17887;DHT22;9069;52.044;7.472;2023-05-17T00:16:22;13.50;79.00
17887;DHT22;9069;52.044;7.472;2023-05-17T00:18:49;13.50;79.20
17887;DHT22;9069;52.044;7.472;2023-05-17T00:21:16;13.50;79.30
17887;DHT22;9069;52.044;7.472;2023-05-17T00:23:43;13.50;79.60
17887;DHT22;9069;52.044;7.472;2023-05-17T00:26:10;13.50;79.70
17887;DHT22;9069;52.044;7.472;2023-05-17T00:28:36;13.50;79.80
17887;DHT22;9069;52.044;7.472;2023-05-17T00:31:03;13.40;80.10
17887;DHT22;9069;52.044;7.472;2023-05-17T00:33:30;13.50;80.50
17887;DHT22;9069;52.044;7.472;2023-05-17T00:35:57;13.40;80.60
17887;DHT22;9069;52.044;7.472;2023-05-17T00:38:24;13.40;81.00
17887;DHT22;9069;52.044;7.472;2023-05-17T00:40:51;13.40;81.20
17887;DHT22;9069;52.044;7.472;2023-05-17T00:43:19;13.40;81.30
17887;DHT22;9069;52.044;7.472;2023-05-17T00:45:46;13.40;81.60
17887;DHT22;9069;52.044;7.472;2023-05-17T00:48:15;13.40;81.80
17887;DHT22;9069;52.044;7.472;2023-05-17T00:50:43;13.40;82.00
17887;DHT22;9069;52.044;7.472;2023-05-17T00:53:10;13.40;82.10
17887;DHT22;9069;52.044;7.472;2023-05-17T00:55:42;13.30;82.40
17887;DHT22;9069;52.044;7.472;2023-05-17T00:58:10;13.30;82.60
17887;DHT22;9069;52.044;7.472;2023-05-17T01:00:38;13.30;82.80
17887;DHT22;9069;52.044;7.472;2023-05-17T01:03:05;13.40;83.00
17887;DHT22;9069;52.044;7.472;2023-05-17T01:05:32;13.30;83.10
17887;DHT22;9069;52.044;7.472;2023-05-17T01:07:58;13.30;83.30
17887;DHT22;9069;52.044;7.472;2023-05-17T01:10:34;13.30;83.50
17887;DHT22;9069;52.044;7.472;2023-05-17T01:13:31;13.30;84.40
17887;DHT22;9069;52.044;7.472;2023-05-17T01:19:15;13.30;84.50
17887;DHT22;9069;52.044;7.472;2023-05-17T01:22:14;13.30;84.60
17887;DHT22;9069;52.044;7.472;2023-05-17T01:25:14;13.30;85.10
17887;DHT22;9069;52.044;7.472;2023-05-17T01:27:49;13.30;85.20
17887;DHT22;9069;52.044;7.472;2023-05-17T01:30:19;13.30;83.90
17887;DHT22;9069;52.044;7.472;2023-05-17T01:32:46;13.30;84.30
17887;DHT22;9069;52.044;7.472;2023-05-17T01:35:14;13.30;84.10
17887;DHT22;9069;52.044;7.472;2023-05-17T01:37:41;13.20;84.60
17887;DHT22;9069;52.044;7.472;2023-05-17T01:40:08;13.20;84.80
17887;DHT22;9069;52.044;7.472;2023-05-17T01:42:41;13.20;85.00
17887;DHT22;9069;52.044;7.472;2023-05-17T01:50:24;13.20;86.20
17887;DHT22;9069;52.044;7.472;2023-05-17T01:52:54;13.20;85.90
17887;DHT22;9069;52.044;7.472;2023-05-17T01:58:25;13.10;85.60
17887;DHT22;9069;52.044;7.472;2023-05-17T02:00:55;13.10;86.40
17887;DHT22;9069;52.044;7.472;2023-05-17T02:03:23;13.10;86.40
17887;DHT22;9069;52.044;7.472;2023-05-17T02:05:51;13.10;87.00
17887;DHT22;9069;52.044;7.472;2023-05-17T02:08:19;13.10;86.10
17887;DHT22;9069;52.044;7.472;2023-05-17T02:10:45;13.10;86.50
17887;DHT22;9069;52.044;7.472;2023-05-17T02:13:12;13.10;86.50
17887;DHT22;9069;52.044;7.472;2023-05-17T02:15:39;13.10;86.40
17887;DHT22;9069;52.044;7.472;2023-05-17T02:18:05;13.10;86.70
17887;DHT22;9069;52.044;7.472;2023-05-17T02:20:33;13.00;86.70
17887;DHT22;9069;52.044;7.472;2023-05-17T02:22:59;13.00;86.90
17887;DHT22;9069;52.044;7.472;2023-05-17T02:25:26;13.00;87.10
17887;DHT22;9069;52.044;7.472;2023-05-17T02:27:53;13.00;87.30
17887;DHT22;9069;52.044;7.472;2023-05-17T02:30:20;13.00;87.70
17887;DHT22;9069;52.044;7.472;2023-05-17T02:32:48;13.00;87.80
17887;DHT22;9069;52.044;7.472;2023-05-17T02:35:15;13.00;88.00
17887;DHT22;9069;52.044;7.472;2023-05-17T02:37:42;13.00;88.30
17887;DHT22;9069;52.044;7.472;2023-05-17T02:40:11;13.00;88.60
17887;DHT22;9069;52.044;7.472;2023-05-17T02:42:38;13.00;88.80
17887;DHT22;9069;52.044;7.472;2023-05-17T02:45:05;13.00;88.80
17887;DHT22;9069;52.044;7.472;2023-05-17T02:47:32;13.00;89.00
17887;DHT22;9069;52.044;7.472;2023-05-17T02:49:59;12.90;89.00
17887;DHT22;9069;52.044;7.472;2023-05-17T02:52:26;12.90;89.00
17887;DHT22;9069;52.044;7.472;2023-05-17T02:54:53;12.90;89.20
17887;DHT22;9069;52.044;7.472;2023-05-17T02:57:20;12.90;89.20
17887;DHT22;9069;52.044;7.472;2023-05-17T02:59:46;12.90;89.20
17887;DHT22;9069;52.044;7.472;2023-05-17T03:02:14;12.90;89.30
17887;DHT22;9069;52.044;7.472;2023-05-17T03:04:41;12.90;89.80
17887;DHT22;9069;52.044;7.472;2023-05-17T03:07:08;12.90;89.40
17887;DHT22;9069;52.044;7.472;2023-05-17T03:09:36;12.90;89.50
17887;DHT22;9069;52.044;7.472;2023-05-17T03:12:03;12.90;89.60
17887;DHT22;9069;52.044;7.472;2023-05-17T03:14:33;12.80;89.50
17887;DHT22;9069;52.044;7.472;2023-05-17T03:17:00;12.80;89.50
17887;DHT22;9069;52.044;7.472;2023-05-17T03:19:27;12.80;89.50
17887;DHT22;9069;52.044;7.472;2023-05-17T03:21:55;12.80;89.40
17887;DHT22;9069;52.044;7.472;2023-05-17T03:24:21;12.80;89.40
17887;DHT22;9069;52.044;7.472;2023-05-17T03:26:49;12.80;89.40
17887;DHT22;9069;52.044;7.472;2023-05-17T03:29:16;12.80;89.40
17887;DHT22;9069;52.044;7.472;2023-05-17T03:31:44;12.80;89.40
17887;DHT22;9069;52.044;7.472;2023-05-17T03:34:11;12.70;89.30
17887;DHT22;9069;52.044;7.472;2023-05-17T03:36:39;12.70;89.20
17887;DHT22;9069;52.044;7.472;2023-05-17T03:39:06;12.70;89.10
17887;DHT22;9069;52.044;7.472;2023-05-17T03:41:34;12.70;89.10
17887;DHT22;9069;52.044;7.472;2023-05-17T03:44:01;12.60;89.00
17887;DHT22;9069;52.044;7.472;2023-05-17T03:46:28;12.60;89.00
17887;DHT22;9069;52.044;7.472;2023-05-17T03:48:55;12.60;88.90
17887;DHT22;9069;52.044;7.472;2023-05-17T03:51:22;12.60;88.80
17887;DHT22;9069;52.044;7.472;2023-05-17T03:53:56;12.60;88.90
17887;DHT22;9069;52.044;7.472;2023-05-17T03:56:24;12.60;89.70
17887;DHT22;9069;52.044;7.472;2023-05-17T03:58:51;12.60;88.90
17887;DHT22;9069;52.044;7.472;2023-05-17T04:01:19;12.50;89.10
17887;DHT22;9069;52.044;7.472;2023-05-17T04:03:46;12.50;89.20
17887;DHT22;9069;52.044;7.472;2023-05-17T04:06:13;12.50;89.40
17887;DHT22;9069;52.044;7.472;2023-05-17T04:08:41;12.50;89.50
17887;DHT22;9069;52.044;7.472;2023-05-17T04:11:08;12.50;89.60
17887;DHT22;9069;52.044;7.472;2023-05-17T04:13:42;12.50;89.70
17887;DHT22;9069;52.044;7.472;2023-05-17T04:16:09;12.50;89.60
17887;DHT22;9069;52.044;7.472;2023-05-17T04:18:39;12.50;89.80
17887;DHT22;9069;52.044;7.472;2023-05-17T04:21:07;12.50;90.00
17887;DHT22;9069;52.044;7.472;2023-05-17T04:23:35;12.50;90.00
17887;DHT22;9069;52.044;7.472;2023-05-17T04:26:03;12.50;90.00
17887;DHT22;9069;52.044;7.472;2023-05-17T04:28:34;12.50;90.10
17887;DHT22;9069;52.044;7.472;2023-05-17T04:31:06;12.50;90.10
17887;DHT22;9069;52.044;7.472;2023-05-17T04:33:35;12.50;90.50
17887;DHT22;9069;52.044;7.472;2023-05-17T04:36:03;12.50;90.40
17887;DHT22;9069;52.044;7.472;2023-05-17T04:38:31;12.60;90.50
17887;DHT22;9069;52.044;7.472;2023-05-17T04:41:07;12.60;90.60
17887;DHT22;9069;52.044;7.472;2023-05-17T04:43:36;12.60;91.00
17887;DHT22;9069;52.044;7.472;2023-05-17T04:46:07;12.70;90.70
17887;DHT22;9069;52.044;7.472;2023-05-17T04:48:34;12.70;90.80
17887;DHT22;9069;52.044;7.472;2023-05-17T04:51:02;12.80;91.00
17887;DHT22;9069;52.044;7.472;2023-05-17T04:53:30;12.90;91.10
17887;DHT22;9069;52.044;7.472;2023-05-17T04:55:59;13.00;91.10
17887;DHT22;9069;52.044;7.472;2023-05-17T04:58:26;13.10;91.10
17887;DHT22;9069;52.044;7.472;2023-05-17T05:00:56;13.20;91.10
17887;DHT22;9069;52.044;7.472;2023-05-17T05:03:23;13.30;91.10
17887;DHT22;9069;52.044;7.472;2023-05-17T05:05:50;13.50;91.10
17887;DHT22;9069;52.044;7.472;2023-05-17T05:08:19;13.60;91.00
17887;DHT22;9069;52.044;7.472;2023-05-17T05:10:46;13.70;90.90
17887;DHT22;9069;52.044;7.472;2023-05-17T05:13:15;13.90;90.70
17887;DHT22;9069;52.044;7.472;2023-05-17T05:15:42;14.00;90.50
17887;DHT22;9069;52.044;7.472;2023-05-17T05:18:09;14.10;90.30
17887;DHT22;9069;52.044;7.472;2023-05-17T05:20:36;14.20;90.10
17887;DHT22;9069;52.044;7.472;2023-05-17T05:23:04;14.30;89.70
17887;DHT22;9069;52.044;7.472;2023-05-17T05:25:33;14.40;89.10
17887;DHT22;9069;52.044;7.472;2023-05-17T05:28:00;14.50;88.30
17887;DHT22;9069;52.044;7.472;2023-05-17T05:30:28;14.60;87.70
17887;DHT22;9069;52.044;7.472;2023-05-17T05:32:55;14.60;87.20
17887;DHT22;9069;52.044;7.472;2023-05-17T05:35:22;14.70;86.90
17887;DHT22;9069;52.044;7.472;2023-05-17T05:37:56;14.70;86.60
17887;DHT22;9069;52.044;7.472;2023-05-17T05:40:24;14.80;86.30
17887;DHT22;9069;52.044;7.472;2023-05-17T05:42:51;14.80;86.10
17887;DHT22;9069;52.044;7.472;2023-05-17T05:45:19;14.90;85.80
17887;DHT22;9069;52.044;7.472;2023-05-17T05:47:48;14.90;85.60
17887;DHT22;9069;52.044;7.472;2023-05-17T05:50:15;15.00;85.50
17887;DHT22;9069;52.044;7.472;2023-05-17T05:52:44;15.00;85.20
17887;DHT22;9069;52.044;7.472;2023-05-17T05:55:11;15.10;85.00
17887;DHT22;9069;52.044;7.472;2023-05-17T05:57:39;15.20;84.80
17887;DHT22;9069;52.044;7.472;2023-05-17T06:00:07;15.20;84.50
17887;DHT22;9069;52.044;7.472;2023-05-17T06:02:38;15.30;84.00
17887;DHT22;9069;52.044;7.472;2023-05-17T06:05:05;15.40;83.70
17887;DHT22;9069;52.044;7.472;2023-05-17T06:07:32;15.50;83.30
17887;DHT22;9069;52.044;7.472;2023-05-17T06:09:59;15.60;83.20
17887;DHT22;9069;52.044;7.472;2023-05-17T06:12:26;15.70;82.90
17887;DHT22;9069;52.044;7.472;2023-05-17T06:14:52;15.80;82.20
17887;DHT22;9069;52.044;7.472;2023-05-17T06:17:19;15.90;81.60
17887;DHT22;9069;52.044;7.472;2023-05-17T06:19:47;16.00;80.80
17887;DHT22;9069;52.044;7.472;2023-05-17T06:22:15;16.20;80.50
17887;DHT22;9069;52.044;7.472;2023-05-17T06:24:41;16.30;78.90
17887;DHT22;9069;52.044;7.472;2023-05-17T06:27:08;16.40;78.50
17887;DHT22;9069;52.044;7.472;2023-05-17T06:29:35;16.60;78.50
17887;DHT22;9069;52.044;7.472;2023-05-17T06:32:02;16.70;78.50
17887;DHT22;9069;52.044;7.472;2023-05-17T06:34:28;16.90;78.20
17887;DHT22;9069;52.044;7.472;2023-05-17T06:36:55;17.00;76.80
17887;DHT22;9069;52.044;7.472;2023-05-17T06:39:22;17.20;76.00
17887;DHT22;9069;52.044;7.472;2023-05-17T06:41:49;17.30;74.60
17887;DHT22;9069;52.044;7.472;2023-05-17T06:44:17;17.40;73.20
17887;DHT22;9069;52.044;7.472;2023-05-17T06:46:44;17.50;72.30
17887;DHT22;9069;52.044;7.472;2023-05-17T06:49:11;17.60;71.90
17887;DHT22;9069;52.044;7.472;2023-05-17T06:51:38;17.60;71.10
17887;DHT22;9069;52.044;7.472;2023-05-17T06:54:04;17.60;70.30
17887;DHT22;9069;52.044;7.472;2023-05-17T06:56:31;17.60;69.60
17887;DHT22;9069;52.044;7.472;2023-05-17T06:58:58;17.60;69.60
17887;DHT22;9069;52.044;7.472;2023-05-17T07:01:25;17.70;69.00
17887;DHT22;9069;52.044;7.472;2023-05-17T07:03:53;17.70;69.40
17887;DHT22;9069;52.044;7.472;2023-05-17T07:06:20;17.80;69.90
17887;DHT22;9069;52.044;7.472;2023-05-17T07:08:47;18.00;69.70
17887;DHT22;9069;52.044;7.472;2023-05-17T07:11:13;18.20;68.60
17887;DHT22;9069;52.044;7.472;2023-05-17T07:13:40;18.30;68.10
17887;DHT22;9069;52.044;7.472;2023-05-17T07:16:07;18.40;66.90
17887;DHT22;9069;52.044;7.472;2023-05-17T07:18:34;18.40;65.30
17887;DHT22;9069;52.044;7.472;2023-05-17T07:21:01;18.50;64.90
17887;DHT22;9069;52.044;7.472;2023-05-17T07:23:28;18.50;64.40
17887;DHT22;9069;52.044;7.472;2023-05-17T07:25:55;18.50;64.40
17887;DHT22;9069;52.044;7.472;2023-05-17T07:28:25;18.50;64.40
17887;DHT22;9069;52.044;7.472;2023-05-17T07:30:51;18.50;64.10
17887;DHT22;9069;52.044;7.472;2023-05-17T07:33:18;18.50;63.60
17887;DHT22;9069;52.044;7.472;2023-05-17T07:35:45;18.50;62.50
17887;DHT22;9069;52.044;7.472;2023-05-17T07:38:12;18.50;62.80
17887;DHT22;9069;52.044;7.472;2023-05-17T07:40:38;18.50;63.10
17887;DHT22;9069;52.044;7.472;2023-05-17T07:43:05;18.60;63.90
17887;DHT22;9069;52.044;7.472;2023-05-17T07:45:32;18.70;63.90
17887;DHT22;9069;52.044;7.472;2023-05-17T07:47:58;18.80;63.80
17887;DHT22;9069;52.044;7.472;2023-05-17T07:50:26;19.00;63.00
17887;DHT22;9069;52.044;7.472;2023-05-17T07:52:53;19.10;63.30
17887;DHT22;9069;52.044;7.472;2023-05-17T07:55:20;19.30;64.10
17887;DHT22;9069;52.044;7.472;2023-05-17T07:57:47;19.40;63.20
17887;DHT22;9069;52.044;7.472;2023-05-17T08:00:14;19.60;62.40
17887;DHT22;9069;52.044;7.472;2023-05-17T08:02:42;19.70;62.00
17887;DHT22;9069;52.044;7.472;2023-05-17T08:05:09;19.70;61.20
17887;DHT22;9069;52.044;7.472;2023-05-17T08:07:36;19.70;61.10
17887;DHT22;9069;52.044;7.472;2023-05-17T08:10:03;19.70;60.00
17887;DHT22;9069;52.044;7.472;2023-05-17T08:12:30;19.70;59.50
17887;DHT22;9069;52.044;7.472;2023-05-17T08:14:59;19.70;59.50
17887;DHT22;9069;52.044;7.472;2023-05-17T08:17:25;19.80;59.40
17887;DHT22;9069;52.044;7.472;2023-05-17T08:19:52;19.80;59.10
17887;DHT22;9069;52.044;7.472;2023-05-17T08:22:19;19.80;58.50
17887;DHT22;9069;52.044;7.472;2023-05-17T08:24:46;19.80;58.30
17887;DHT22;9069;52.044;7.472;2023-05-17T08:27:13;19.80;58.40
17887;DHT22;9069;52.044;7.472;2023-05-17T08:29:39;19.80;59.10
17887;DHT22;9069;52.044;7.472;2023-05-17T08:32:06;20.00;59.40
17887;DHT22;9069;52.044;7.472;2023-05-17T08:34:33;20.20;59.90
17887;DHT22;9069;52.044;7.472;2023-05-17T08:37:00;20.50;60.30
17887;DHT22;9069;52.044;7.472;2023-05-17T08:39:27;20.90;59.20
17887;DHT22;9069;52.044;7.472;2023-05-17T08:41:53;21.10;57.80
17887;DHT22;9069;52.044;7.472;2023-05-17T08:44:26;21.30;57.10
17887;DHT22;9069;52.044;7.472;2023-05-17T08:46:55;21.40;56.50
17887;DHT22;9069;52.044;7.472;2023-05-17T08:49:23;21.40;56.70
17887;DHT22;9069;52.044;7.472;2023-05-17T08:51:53;21.50;56.50
17887;DHT22;9069;52.044;7.472;2023-05-17T08:54:20;21.50;56.20
17887;DHT22;9069;52.044;7.472;2023-05-17T08:56:49;21.50;56.50
17887;DHT22;9069;52.044;7.472;2023-05-17T08:59:17;21.60;56.50
17887;DHT22;9069;52.044;7.472;2023-05-17T09:01:47;21.60;56.40
17887;DHT22;9069;52.044;7.472;2023-05-17T09:04:15;21.60;56.20
17887;DHT22;9069;52.044;7.472;2023-05-17T09:06:43;21.60;55.90
17887;DHT22;9069;52.044;7.472;2023-05-17T09:09:10;21.60;55.90
17887;DHT22;9069;52.044;7.472;2023-05-17T09:11:37;21.60;55.40
17887;DHT22;9069;52.044;7.472;2023-05-17T09:14:05;21.50;55.00
17887;DHT22;9069;52.044;7.472;2023-05-17T09:16:36;21.50;55.00
17887;DHT22;9069;52.044;7.472;2023-05-17T09:19:06;21.50;55.40
17887;DHT22;9069;52.044;7.472;2023-05-17T09:21:35;21.50;56.00
17887;DHT22;9069;52.044;7.472;2023-05-17T09:49:13;22.30;53.20
17887;DHT22;9069;52.044;7.472;2023-05-17T09:51:41;22.20;54.20
17887;DHT22;9069;52.044;7.472;2023-05-17T09:54:09;22.20;53.70
17887;DHT22;9069;52.044;7.472;2023-05-17T09:56:36;22.20;53.50
17887;DHT22;9069;52.044;7.472;2023-05-17T09:59:10;22.20;53.20
17887;DHT22;9069;52.044;7.472;2023-05-17T10:01:39;22.30;53.60
17887;DHT22;9069;52.044;7.472;2023-05-17T10:04:09;22.40;54.20
17887;DHT22;9069;52.044;7.472;2023-05-17T10:06:38;22.70;53.90
17887;DHT22;9069;52.044;7.472;2023-05-17T10:09:19;22.80;53.50
17887;DHT22;9069;52.044;7.472;2023-05-17T10:11:47;23.00;53.50
17887;DHT22;9069;52.044;7.472;2023-05-17T10:14:27;23.20;53.20
17887;DHT22;9069;52.044;7.472;2023-05-17T10:16:57;23.30;52.00
17887;DHT22;9069;52.044;7.472;2023-05-17T10:19:24;23.40;52.20
17887;DHT22;9069;52.044;7.472;2023-05-17T10:21:52;23.40;52.40
17887;DHT22;9069;52.044;7.472;2023-05-17T10:24:20;23.50;52.70
17887;DHT22;9069;52.044;7.472;2023-05-17T10:26:51;23.60;52.80
17887;DHT22;9069;52.044;7.472;2023-05-17T10:29:18;23.80;51.40
17887;DHT22;9069;52.044;7.472;2023-05-17T10:31:48;24.00;51.20
17887;DHT22;9069;52.044;7.472;2023-05-17T10:34:18;24.20;51.50
17887;DHT22;9069;52.044;7.472;2023-05-17T10:36:45;24.40;50.10
17887;DHT22;9069;52.044;7.472;2023-05-17T10:39:14;24.40;48.80
17887;DHT22;9069;52.044;7.472;2023-05-17T10:41:44;24.40;48.20
17887;DHT22;9069;52.044;7.472;2023-05-17T10:44:13;24.20;47.80
17887;DHT22;9069;52.044;7.472;2023-05-17T10:46:50;24.00;48.10
17887;DHT22;9069;52.044;7.472;2023-05-17T10:49:17;23.90;48.20
17887;DHT22;9069;52.044;7.472;2023-05-17T10:51:50;23.80;48.90
17887;DHT22;9069;52.044;7.472;2023-05-17T10:54:17;23.70;48.70
17887;DHT22;9069;52.044;7.472;2023-05-17T10:56:51;23.60;48.70
17887;DHT22;9069;52.044;7.472;2023-05-17T10:59:25;23.50;48.80
17887;DHT22;9069;52.044;7.472;2023-05-17T11:02:07;23.50;48.40
17887;DHT22;9069;52.044;7.472;2023-05-17T11:04:39;23.50;47.20
17887;DHT22;9069;52.044;7.472;2023-05-17T11:07:26;23.40;47.30
17887;DHT22;9069;52.044;7.472;2023-05-17T11:12:37;23.10;47.50
17887;DHT22;9069;52.044;7.472;2023-05-17T11:15:16;22.90;47.50
17887;DHT22;9069;52.044;7.472;2023-05-17T11:25:35;22.50;48.10
17887;DHT22;9069;52.044;7.472;2023-05-17T11:28:19;22.50;48.90
17887;DHT22;9069;52.044;7.472;2023-05-17T11:30:46;22.50;48.20
17887;DHT22;9069;52.044;7.472;2023-05-17T11:33:36;22.50;49.00
17887;DHT22;9069;52.044;7.472;2023-05-17T11:36:05;22.50;
17887;DHT22;9069;52.044;7.472;2023-05-17T11:38:38;22.40;47.70
17887;DHT22;9069;52.044;7.472;2023-05-17T11:41:25;22.30;47.60
17887;DHT22;9069;52.044;7.472;2023-05-17T11:43:53;22.20;47.30
17887;DHT22;9069;52.044;7.472;2023-05-17T11:46:22;22.00;48.30
17887;DHT22;9069;52.044;7.472;2023-05-17T11:48:50;21.90;48.50
17887;DHT22;9069;52.044;7.472;2023-05-17T11:51:19;21.80;48.20
17887;DHT22;9069;52.044;7.472;2023-05-17T11:53:50;21.70;48.20
17887;DHT22;9069;52.044;7.472;2023-05-17T11:56:22;21.60;48.20
17887;DHT22;9069;52.044;7.472;2023-05-17T11:58:58;21.50;48.30
17887;DHT22;9069;52.044;7.472;2023-05-17T12:01:25;21.50;48.10
17887;DHT22;9069;52.044;7.472;2023-05-17T12:03:56;21.30;48.60
17887;DHT22;9069;52.044;7.472;2023-05-17T12:06:25;21.20;49.00
17887;DHT22;9069;52.044;7.472;2023-05-17T12:08:54;21.00;49.00
17887;DHT22;9069;52.044;7.472;2023-05-17T12:11:21;21.00;49.70
17887;DHT22;9069;52.044;7.472;2023-05-17T12:13:49;20.90;49.40
17887;DHT22;9069;52.044;7.472;2023-05-17T12:16:20;20.90;49.70
17887;DHT22;9069;52.044;7.472;2023-05-17T12:18:49;20.90;50.00
17887;DHT22;9069;52.044;7.472;2023-05-17T12:21:17;20.90;50.20
17887;DHT22;9069;52.044;7.472;2023-05-17T12:23:45;20.80;50.40
17887;DHT22;9069;52.044;7.472;2023-05-17T12:26:20;20.80;51.00
17887;DHT22;9069;52.044;7.472;2023-05-17T12:28:55;20.80;51.00
17887;DHT22;9069;52.044;7.472;2023-05-17T12:31:43;20.90;50.40
17887;DHT22;9069;52.044;7.472;2023-05-17T12:34:11;20.90;50.30
17887;DHT22;9069;52.044;7.472;2023-05-17T12:36:39;21.10;50.20
17887;DHT22;9069;52.044;7.472;2023-05-17T12:39:08;21.00;50.10
17887;DHT22;9069;52.044;7.472;2023-05-17T12:41:37;20.90;50.00
17887;DHT22;9069;52.044;7.472;2023-05-17T12:44:06;20.90;49.70
17887;DHT22;9069;52.044;7.472;2023-05-17T12:46:41;20.90;49.50
17887;DHT22;9069;52.044;7.472;2023-05-17T12:49:09;20.80;49.70
17887;DHT22;9069;52.044;7.472;2023-05-17T12:51:40;20.80;50.30
17887;DHT22;9069;52.044;7.472;2023-05-17T12:54:09;20.70;49.80
17887;DHT22;9069;52.044;7.472;2023-05-17T12:56:36;20.60;50.20
17887;DHT22;9069;52.044;7.472;2023-05-17T12:59:05;20.60;50.10
17887;DHT22;9069;52.044;7.472;2023-05-17T13:01:57;20.50;50.00
17887;DHT22;9069;52.044;7.472;2023-05-17T13:04:31;20.50;49.80
17887;DHT22;9069;52.044;7.472;2023-05-17T13:07:00;20.50;49.60
17887;DHT22;9069;52.044;7.472;2023-05-17T13:09:29;20.50;49.60
17887;DHT22;9069;52.044;7.472;2023-05-17T13:12:02;20.50;48.90
17887;DHT22;9069;52.044;7.472;2023-05-17T13:14:43;20.40;49.10
17887;DHT22;9069;52.044;7.472;2023-05-17T13:17:25;20.30;49.50
17887;DHT22;9069;52.044;7.472;2023-05-17T13:19:53;20.30;49.80
17887;DHT22;9069;52.044;7.472;2023-05-17T13:22:23;20.30;49.90
17887;DHT22;9069;52.044;7.472;2023-05-17T13:24:50;20.10;49.30
17887;DHT22;9069;52.044;7.472;2023-05-17T13:27:18;20.10;49.50
17887;DHT22;9069;52.044;7.472;2023-05-17T13:29:44;20.00;49.80
17887;DHT22;9069;52.044;7.472;2023-05-17T13:32:12;20.00;49.80
17887;DHT22;9069;52.044;7.472;2023-05-17T13:34:40;20.00;49.60
17887;DHT22;9069;52.044;7.472;2023-05-17T13:37:07;19.90;49.30
17887;DHT22;9069;52.044;7.472;2023-05-17T13:39:38;20.10;49.20
17887;DHT22;9069;52.044;7.472;2023-05-17T13:42:05;19.80;49.10
17887;DHT22;9069;52.044;7.472;2023-05-17T13:44:32;19.80;49.10
17887;DHT22;9069;52.044;7.472;2023-05-17T13:46:59;19.70;49.20
17887;DHT22;9069;52.044;7.472;2023-05-17T13:49:26;19.60;49.50
17887;DHT22;9069;52.044;7.472;2023-05-17T13:51:54;19.50;49.70
17887;DHT22;9069;52.044;7.472;2023-05-17T13:54:20;19.40;49.60
17887;DHT22;9069;52.044;7.472;2023-05-17T13:56:50;19.30;49.70
17887;DHT22;9069;52.044;7.472;2023-05-17T13:59:17;19.20;50.00
17887;DHT22;9069;52.044;7.472;2023-05-17T14:01:44;19.20;50.30
17887;DHT22;9069;52.044;7.472;2023-05-17T14:04:11;19.20;50.40
17887;DHT22;9069;52.044;7.472;2023-05-17T14:06:38;19.20;50.30
17887;DHT22;9069;52.044;7.472;2023-05-17T14:09:05;19.10;50.70
17887;DHT22;9069;52.044;7.472;2023-05-17T14:11:32;19.10;50.70
17887;DHT22;9069;52.044;7.472;2023-05-17T14:13:59;19.20;50.70
17887;DHT22;9069;52.044;7.472;2023-05-17T14:16:26;19.20;50.60
17887;DHT22;9069;52.044;7.472;2023-05-17T14:18:53;19.20;50.90
17887;DHT22;9069;52.044;7.472;2023-05-17T14:21:20;19.20;50.60
17887;DHT22;9069;52.044;7.472;2023-05-17T14:23:47;19.20;50.50
17887;DHT22;9069;52.044;7.472;2023-05-17T14:26:14;19.10;50.60
17887;DHT22;9069;52.044;7.472;2023-05-17T14:28:41;19.10;50.70
17887;DHT22;9069;52.044;7.472;2023-05-17T14:31:08;19.00;50.50
17887;DHT22;9069;52.044;7.472;2023-05-17T14:33:35;19.00;50.50
17887;DHT22;9069;52.044;7.472;2023-05-17T14:36:02;19.00;50.40
17887;DHT22;9069;52.044;7.472;2023-05-17T14:38:32;18.90;50.70
17887;DHT22;9069;52.044;7.472;2023-05-17T14:40:59;18.90;51.00
17887;DHT22;9069;52.044;7.472;2023-05-17T14:43:27;18.80;51.20
17887;DHT22;9069;52.044;7.472;2023-05-17T14:45:53;18.80;50.90
17887;DHT22;9069;52.044;7.472;2023-05-17T14:48:20;18.80;50.90
17887;DHT22;9069;52.044;7.472;2023-05-17T14:50:48;18.80;50.30
17887;DHT22;9069;52.044;7.472;2023-05-17T14:53:14;18.70;50.30
17887;DHT22;9069;52.044;7.472;2023-05-17T14:55:42;18.70;50.50
17887;DHT22;9069;52.044;7.472;2023-05-17T14:58:09;18.60;50.50
17887;DHT22;9069;52.044;7.472;2023-05-17T15:00:38;18.60;50.30
17887;DHT22;9069;52.044;7.472;2023-05-17T15:03:07;18.50;50.50
17887;DHT22;9069;52.044;7.472;2023-05-17T15:05:34;18.50;50.90
17887;DHT22;9069;52.044;7.472;2023-05-17T15:08:01;18.40;51.00
17887;DHT22;9069;52.044;7.472;2023-05-17T15:10:28;18.40;51.20
17887;DHT22;9069;52.044;7.472;2023-05-17T15:12:55;18.40;51.30
17887;DHT22;9069;52.044;7.472;2023-05-17T15:15:22;18.30;51.20
17887;DHT22;9069;52.044;7.472;2023-05-17T15:17:49;18.30;51.10
17887;DHT22;9069;52.044;7.472;2023-05-17T15:20:17;18.30;51.20
17887;DHT22;9069;52.044;7.472;2023-05-17T15:22:44;18.20;51.20
17887;DHT22;9069;52.044;7.472;2023-05-17T15:25:11;18.20;51.20
17887;DHT22;9069;52.044;7.472;2023-05-17T15:27:37;18.10;51.40
17887;DHT22;9069;52.044;7.472;2023-05-17T15:30:05;18.00;51.80
17887;DHT22;9069;52.044;7.472;2023-05-17T15:32:33;18.00;52.10
17887;DHT22;9069;52.044;7.472;2023-05-17T15:34:59;17.90;52.00
17887;DHT22;9069;52.044;7.472;2023-05-17T15:37:26;17.90;52.10
17887;DHT22;9069;52.044;7.472;2023-05-17T15:39:53;17.90;52.30
17887;DHT22;9069;52.044;7.472;2023-05-17T15:42:20;17.90;52.40
17887;DHT22;9069;52.044;7.472;2023-05-17T15:44:46;17.90;52.40
17887;DHT22;9069;52.044;7.472;2023-05-17T15:47:13;17.80;52.30
17887;DHT22;9069;52.044;7.472;2023-05-17T15:49:40;17.80;52.50
17887;DHT22;9069;52.044;7.472;2023-05-17T15:52:06;17.80;52.90
17887;DHT22;9069;52.044;7.472;2023-05-17T15:54:34;17.80;53.10
17887;DHT22;9069;52.044;7.472;2023-05-17T15:57:01;17.80;53.00
17887;DHT22;9069;52.044;7.472;2023-05-17T15:59:28;17.90;52.80
17887;DHT22;9069;52.044;7.472;2023-05-17T16:01:54;17.90;52.80
17887;DHT22;9069;52.044;7.472;2023-05-17T16:04:21;18.00;52.80
17887;DHT22;9069;52.044;7.472;2023-05-17T16:06:48;18.00;52.60
17887;DHT22;9069;52.044;7.472;2023-05-17T16:09:15;18.00;52.70
17887;DHT22;9069;52.044;7.472;2023-05-17T16:11:42;18.00;52.90
17887;DHT22;9069;52.044;7.472;2023-05-17T16:14:09;18.00;52.80
17887;DHT22;9069;52.044;7.472;2023-05-17T16:16:35;18.00;52.70
17887;DHT22;9069;52.044;7.472;2023-05-17T16:19:02;18.00;52.50
17887;DHT22;9069;52.044;7.472;2023-05-17T16:21:30;17.90;52.50
17887;DHT22;9069;52.044;7.472;2023-05-17T16:23:57;17.90;52.70
17887;DHT22;9069;52.044;7.472;2023-05-17T16:26:24;17.90;52.90
17887;DHT22;9069;52.044;7.472;2023-05-17T16:28:52;17.80;52.80
17887;DHT22;9069;52.044;7.472;2023-05-17T16:31:19;17.90;52.70
17887;DHT22;9069;52.044;7.472;2023-05-17T16:33:45;17.80;52.50
17887;DHT22;9069;52.044;7.472;2023-05-17T16:36:12;17.70;52.50
17887;DHT22;9069;52.044;7.472;2023-05-17T16:38:39;17.70;52.60
17887;DHT22;9069;52.044;7.472;2023-05-17T16:41:06;17.80;52.70
17887;DHT22;9069;52.044;7.472;2023-05-17T16:43:33;17.60;52.80